sensor_id;sensor_type;location;lat;lon;timestamp;P1;P2;P0
76304;PMS7003;65111;50.536;19.204;2022-12-01T00:01:13;19.75;18.00;11.50
76304;PMS7003;65111;50.536;19.204;2022-12-01T00:03:39;19.25;16.50;10.00
76304;PMS7003;65111;50.536;19.204;2022-12-01T00:06:10;18.75;15.50;11.00
76304;PMS7003;65111;50.536;19.204;2022-12-01T00:08:40;12.75;12.75;6.75
76304;PMS7003;65111;50.536;19.204;2022-12-01T00:11:09;16.00;16.00;11.00
76304;PMS7003;65111;50.536;19.204;2022-12-01T00:13:39;15.50;14.00;9.00
76304;PMS7003;65111;50.536;19.204;2022-12-01T00:16:12;16.50;16.00;9.25
76304;PMS7003;65111;50.536;19.204;2022-12-01T00:18:41;21.00;17.00;11.00
76304;PMS7003;65111;50.536;19.204;2022-12-01T00:21:14;21.25;14.50;9.50
76304;PMS7003;65111;50.536;19.204;2022-12-01T00:23:48;21.25;18.00;12.00
76304;PMS7003;65111;50.536;19.204;2022-12-01T00:26:17;23.25;18.00;11.50
76304;PMS7003;65111;50.536;19.204;2022-12-01T00:28:48;22.50;21.75;14.00
76304;PMS7003;65111;50.536;19.204;2022-12-01T00:31:16;20.75;20.00;12.50
76304;PMS7003;65111;50.536;19.204;2022-12-01T00:33:42;23.00;20.50;12.50
76304;PMS7003;65111;50.536;19.204;2022-12-01T00:36:08;16.00;15.25;9.75
76304;PMS7003;65111;50.536;19.204;2022-12-01T00:38:35;28.25;23.00;12.50
76304;PMS7003;65111;50.536;19.204;2022-12-01T00:41:01;23.75;21.25;13.00
76304;PMS7003;65111;50.536;19.204;2022-12-01T00:43:28;19.50;17.25;12.25
76304;PMS7003;65111;50.536;19.204;2022-12-01T00:45:55;25.00;24.00;14.00
76304;PMS7003;65111;50.536;19.204;2022-12-01T00:48:21;24.25;22.50;13.50
76304;PMS7003;65111;50.536;19.204;2022-12-01T00:50:53;22.00;18.75;12.50
76304;PMS7003;65111;50.536;19.204;2022-12-01T00:53:17;22.75;19.00;11.75
76304;PMS7003;65111;50.536;19.204;2022-12-01T00:55:43;20.00;18.25;9.25
76304;PMS7003;65111;50.536;19.204;2022-12-01T00:58:10;23.75;20.50;14.00
76304;PMS7003;65111;50.536;19.204;2022-12-01T01:00:36;26.00;23.00;14.00
76304;PMS7003;65111;50.536;19.204;2022-12-01T01:03:07;25.00;18.50;12.50
76304;PMS7003;65111;50.536;19.204;2022-12-01T01:05:35;25.25;21.25;14.00
76304;PMS7003;65111;50.536;19.204;2022-12-01T01:08:05;21.50;18.75;10.00
76304;PMS7003;65111;50.536;19.204;2022-12-01T01:10:38;22.00;16.50;12.00
76304;PMS7003;65111;50.536;19.204;2022-12-01T01:13:05;18.25;18.25;12.00
76304;PMS7003;65111;50.536;19.204;2022-12-01T01:15:32;20.00;17.75;10.00
76304;PMS7003;65111;50.536;19.204;2022-12-01T01:17:58;18.50;18.50;12.25
76304;PMS7003;65111;50.536;19.204;2022-12-01T01:20:25;21.75;20.50;12.25
76304;PMS7003;65111;50.536;19.204;2022-12-01T01:22:52;18.75;17.50;11.00
76304;PMS7003;65111;50.536;19.204;2022-12-01T01:25:18;15.50;15.25;9.25
76304;PMS7003;65111;50.536;19.204;2022-12-01T01:27:44;18.50;15.25;10.00
76304;PMS7003;65111;50.536;19.204;2022-12-01T01:30:11;15.00;15.00;11.00
76304;PMS7003;65111;50.536;19.204;2022-12-01T01:32:38;22.75;19.50;12.50
76304;PMS7003;65111;50.536;19.204;2022-12-01T01:35:05;29.50;22.50;15.00
76304;PMS7003;65111;50.536;19.204;2022-12-01T01:37:32;8.75;7.00;6.50
76304;PMS7003;65111;50.536;19.204;2022-12-01T01:39:59;24.00;18.75;10.50
76304;PMS7003;65111;50.536;19.204;2022-12-01T01:42:25;25.50;22.25;15.00
76304;PMS7003;65111;50.536;19.204;2022-12-01T01:44:53;19.00;18.00;12.50
76304;PMS7003;65111;50.536;19.204;2022-12-01T01:47:30;32.50;24.75;14.50
76304;PMS7003;65111;50.536;19.204;2022-12-01T01:50:04;16.25;15.00;9.75
76304;PMS7003;65111;50.536;19.204;2022-12-01T01:52:34;17.50;14.00;7.50
76304;PMS7003;65111;50.536;19.204;2022-12-01T01:55:03;17.50;15.50;9.00
76304;PMS7003;65111;50.536;19.204;2022-12-01T01:57:31;14.50;14.50;10.00
76304;PMS7003;65111;50.536;19.204;2022-12-01T02:00:16;16.25;13.25;9.50
76304;PMS7003;65111;50.536;19.204;2022-12-01T02:02:41;18.25;17.50;10.50
76304;PMS7003;65111;50.536;19.204;2022-12-01T02:05:23;17.75;14.25;9.00
76304;PMS7003;65111;50.536;19.204;2022-12-01T02:07:52;19.00;18.00;11.00
76304;PMS7003;65111;50.536;19.204;2022-12-01T02:10:28;21.50;14.50;9.75
76304;PMS7003;65111;50.536;19.204;2022-12-01T02:35:32;19.75;18.00;10.50
76304;PMS7003;65111;50.536;19.204;2022-12-01T02:46:26;12.25;12.25;7.00
76304;PMS7003;65111;50.536;19.204;2022-12-01T02:48:54;12.00;12.00;6.75
76304;PMS7003;65111;50.536;19.204;2022-12-01T02:51:26;17.50;16.00;9.75
76304;PMS7003;65111;50.536;19.204;2022-12-01T02:53:57;9.50;9.50;6.25
76304;PMS7003;65111;50.536;19.204;2022-12-01T02:56:24;13.00;12.50;9.50
76304;PMS7003;65111;50.536;19.204;2022-12-01T02:58:51;13.00;12.00;7.50
76304;PMS7003;65111;50.536;19.204;2022-12-01T03:01:24;19.00;15.25;9.25
76304;PMS7003;65111;50.536;19.204;2022-12-01T03:06:54;13.00;9.50;7.00
76304;PMS7003;65111;50.536;19.204;2022-12-01T03:12:28;17.25;13.25;9.50
76304;PMS7003;65111;50.536;19.204;2022-12-01T03:15:15;14.75;14.75;10.50
76304;PMS7003;65111;50.536;19.204;2022-12-01T03:17:58;11.00;10.00;8.00
76304;PMS7003;65111;50.536;19.204;2022-12-01T03:20:31;14.50;11.50;7.50
76304;PMS7003;65111;50.536;19.204;2022-12-01T03:23:03;21.75;17.00;10.50
76304;PMS7003;65111;50.536;19.204;2022-12-01T03:25:32;16.50;16.25;10.50
76304;PMS7003;65111;50.536;19.204;2022-12-01T03:28:00;12.50;11.75;7.00
76304;PMS7003;65111;50.536;19.204;2022-12-01T03:30:31;7.50;5.50;1.00
76304;PMS7003;65111;50.536;19.204;2022-12-01T03:33:07;12.00;12.00;9.00
76304;PMS7003;65111;50.536;19.204;2022-12-01T03:35:46;10.00;10.00;8.50
76304;PMS7003;65111;50.536;19.204;2022-12-01T03:38:11;17.00;13.25;8.00
76304;PMS7003;65111;50.536;19.204;2022-12-01T03:40:40;10.50;10.00;6.25
76304;PMS7003;65111;50.536;19.204;2022-12-01T03:43:12;14.75;13.00;10.00
76304;PMS7003;65111;50.536;19.204;2022-12-01T03:48:10;12.50;9.00;6.00
76304;PMS7003;65111;50.536;19.204;2022-12-01T03:53:34;12.50;12.50;7.50
76304;PMS7003;65111;50.536;19.204;2022-12-01T03:56:02;12.25;12.00;7.00
76304;PMS7003;65111;50.536;19.204;2022-12-01T03:58:36;10.50;10.50;6.75
76304;PMS7003;65111;50.536;19.204;2022-12-01T04:01:04;13.00;12.00;6.50
76304;PMS7003;65111;50.536;19.204;2022-12-01T04:03:32;12.00;12.00;6.75
76304;PMS7003;65111;50.536;19.204;2022-12-01T04:05:59;11.00;10.00;6.00
76304;PMS7003;65111;50.536;19.204;2022-12-01T04:08:25;13.50;9.00;6.00
76304;PMS7003;65111;50.536;19.204;2022-12-01T04:10:52;14.50;12.50;8.00
76304;PMS7003;65111;50.536;19.204;2022-12-01T04:13:18;9.00;9.00;7.50
76304;PMS7003;65111;50.536;19.204;2022-12-01T04:15:46;12.75;10.00;6.75
76304;PMS7003;65111;50.536;19.204;2022-12-01T04:18:14;12.75;10.50;6.50
76304;PMS7003;65111;50.536;19.204;2022-12-01T04:20:40;9.00;9.00;6.00
76304;PMS7003;65111;50.536;19.204;2022-12-01T04:23:08;9.00;9.00;4.00
76304;PMS7003;65111;50.536;19.204;2022-12-01T04:25:34;12.50;10.50;7.00
76304;PMS7003;65111;50.536;19.204;2022-12-01T04:28:01;8.75;8.75;5.50
76304;PMS7003;65111;50.536;19.204;2022-12-01T04:30:27;13.50;11.25;5.50
76304;PMS7003;65111;50.536;19.204;2022-12-01T04:32:53;14.00;10.50;7.00
76304;PMS7003;65111;50.536;19.204;2022-12-01T04:35:20;9.75;9.75;6.75
76304;PMS7003;65111;50.536;19.204;2022-12-01T04:37:46;9.50;9.50;7.00
76304;PMS7003;65111;50.536;19.204;2022-12-01T04:40:12;9.50;9.00;5.00
76304;PMS7003;65111;50.536;19.204;2022-12-01T04:42:39;9.75;7.50;4.50
76304;PMS7003;65111;50.536;19.204;2022-12-01T04:45:06;9.50;9.25;6.75
76304;PMS7003;65111;50.536;19.204;2022-12-01T04:47:34;8.50;8.50;5.50
76304;PMS7003;65111;50.536;19.204;2022-12-01T04:50:00;2.50;2.50;2.50
76304;PMS7003;65111;50.536;19.204;2022-12-01T04:52:26;6.25;4.50;4.50
76304;PMS7003;65111;50.536;19.204;2022-12-01T04:54:53;9.00;8.75;6.75
76304;PMS7003;65111;50.536;19.204;2022-12-01T04:57:19;11.25;10.50;9.00
76304;PMS7003;65111;50.536;19.204;2022-12-01T04:59:45;9.75;9.00;6.25
76304;PMS7003;65111;50.536;19.204;2022-12-01T05:02:12;7.50;7.50;6.25
76304;PMS7003;65111;50.536;19.204;2022-12-01T05:04:38;10.00;7.00;6.00
76304;PMS7003;65111;50.536;19.204;2022-12-01T05:07:06;10.00;7.50;5.50
76304;PMS7003;65111;50.536;19.204;2022-12-01T05:09:32;8.75;8.00;4.50
76304;PMS7003;65111;50.536;19.204;2022-12-01T05:11:59;8.50;7.50;6.75
76304;PMS7003;65111;50.536;19.204;2022-12-01T05:14:26;6.50;6.50;4.50
76304;PMS7003;65111;50.536;19.204;2022-12-01T05:16:52;9.75;9.75;6.50
76304;PMS7003;65111;50.536;19.204;2022-12-01T05:19:19;12.00;9.25;6.25
76304;PMS7003;65111;50.536;19.204;2022-12-01T05:22:04;10.50;7.50;5.50
76304;PMS7003;65111;50.536;19.204;2022-12-01T05:24:30;9.75;6.25;4.50
76304;PMS7003;65111;50.536;19.204;2022-12-01T05:26:57;10.25;8.50;6.00
76304;PMS7003;65111;50.536;19.204;2022-12-01T05:29:23;10.00;10.00;6.00
76304;PMS7003;65111;50.536;19.204;2022-12-01T05:31:49;8.75;8.50;6.00
76304;PMS7003;65111;50.536;19.204;2022-12-01T05:34:16;10.75;8.00;4.50
76304;PMS7003;65111;50.536;19.204;2022-12-01T05:36:43;11.75;9.00;6.25
76304;PMS7003;65111;50.536;19.204;2022-12-01T05:39:09;9.00;9.00;6.25
76304;PMS7003;65111;50.536;19.204;2022-12-01T05:41:35;14.00;11.50;6.75
76304;PMS7003;65111;50.536;19.204;2022-12-01T05:44:02;7.50;6.25;4.00
76304;PMS7003;65111;50.536;19.204;2022-12-01T05:46:29;11.50;7.50;5.00
76304;PMS7003;65111;50.536;19.204;2022-12-01T05:48:55;12.75;10.50;7.00
76304;PMS7003;65111;50.536;19.204;2022-12-01T05:51:21;9.50;6.25;5.50
76304;PMS7003;65111;50.536;19.204;2022-12-01T05:53:48;9.00;6.00;5.00
76304;PMS7003;65111;50.536;19.204;2022-12-01T05:56:14;11.25;6.50;3.75
76304;PMS7003;65111;50.536;19.204;2022-12-01T05:58:41;10.25;8.50;5.00
76304;PMS7003;65111;50.536;19.204;2022-12-01T06:01:07;18.00;8.00;5.50
76304;PMS7003;65111;50.536;19.204;2022-12-01T06:03:33;8.75;5.75;4.25
76304;PMS7003;65111;50.536;19.204;2022-12-01T06:06:00;8.25;6.75;4.00
76304;PMS7003;65111;50.536;19.204;2022-12-01T06:08:27;8.25;8.00;4.50
76304;PMS7003;65111;50.536;19.204;2022-12-01T06:10:53;8.75;8.75;6.50
76304;PMS7003;65111;50.536;19.204;2022-12-01T06:13:19;9.00;9.00;5.50
76304;PMS7003;65111;50.536;19.204;2022-12-01T06:15:54;8.25;7.25;4.50
76304;PMS7003;65111;50.536;19.204;2022-12-01T06:18:32;15.00;13.00;7.00
76304;PMS7003;65111;50.536;19.204;2022-12-01T06:21:01;10.25;10.25;6.50
76304;PMS7003;65111;50.536;19.204;2022-12-01T06:23:27;9.00;7.00;6.00
76304;PMS7003;65111;50.536;19.204;2022-12-01T06:25:54;12.00;10.50;9.00
76304;PMS7003;65111;50.536;19.204;2022-12-01T06:28:20;8.50;8.00;4.00
76304;PMS7003;65111;50.536;19.204;2022-12-01T06:30:46;12.50;9.00;6.50
76304;PMS7003;65111;50.536;19.204;2022-12-01T06:33:13;13.00;10.00;7.00
76304;PMS7003;65111;50.536;19.204;2022-12-01T06:35:39;14.50;12.25;7.00
76304;PMS7003;65111;50.536;19.204;2022-12-01T06:38:05;12.00;10.00;7.00
76304;PMS7003;65111;50.536;19.204;2022-12-01T06:40:32;11.75;8.75;4.00
76304;PMS7003;65111;50.536;19.204;2022-12-01T06:42:59;12.25;6.25;4.00
76304;PMS7003;65111;50.536;19.204;2022-12-01T06:45:27;9.25;7.00;4.00
76304;PMS7003;65111;50.536;19.204;2022-12-01T06:47:55;7.50;7.00;4.50
76304;PMS7003;65111;50.536;19.204;2022-12-01T06:50:22;8.00;7.00;4.50
76304;PMS7003;65111;50.536;19.204;2022-12-01T06:52:49;9.25;9.00;6.00
76304;PMS7003;65111;50.536;19.204;2022-12-01T06:55:17;12.00;12.00;7.00
76304;PMS7003;65111;50.536;19.204;2022-12-01T06:57:43;18.25;11.00;7.00
76304;PMS7003;65111;50.536;19.204;2022-12-01T07:00:10;13.75;12.00;7.00
76304;PMS7003;65111;50.536;19.204;2022-12-01T07:02:38;11.50;9.00;4.50
76304;PMS7003;65111;50.536;19.204;2022-12-01T07:05:04;13.00;13.00;9.00
76304;PMS7003;65111;50.536;19.204;2022-12-01T07:07:34;6.67;6.33;6.00
76304;PMS7003;65111;50.536;19.204;2022-12-01T07:10:01;10.00;10.00;7.50
76304;PMS7003;65111;50.536;19.204;2022-12-01T07:12:31;9.00;7.50;5.00
76304;PMS7003;65111;50.536;19.204;2022-12-01T07:14:57;14.00;12.00;6.50
76304;PMS7003;65111;50.536;19.204;2022-12-01T07:17:24;8.25;7.00;6.00
76304;PMS7003;65111;50.536;19.204;2022-12-01T07:19:50;12.75;9.00;6.50
76304;PMS7003;65111;50.536;19.204;2022-12-01T07:22:17;10.25;9.00;6.00
76304;PMS7003;65111;50.536;19.204;2022-12-01T07:24:44;13.50;10.50;7.50
76304;PMS7003;65111;50.536;19.204;2022-12-01T07:27:10;9.00;8.00;5.00
76304;PMS7003;65111;50.536;19.204;2022-12-01T07:29:36;7.50;7.50;6.75
76304;PMS7003;65111;50.536;19.204;2022-12-01T07:32:03;10.25;10.25;5.50
76304;PMS7003;65111;50.536;19.204;2022-12-01T07:34:30;14.50;11.00;7.00
76304;PMS7003;65111;50.536;19.204;2022-12-01T07:36:56;8.50;7.00;4.50
76304;PMS7003;65111;50.536;19.204;2022-12-01T07:39:23;10.75;9.75;6.00
76304;PMS7003;65111;50.536;19.204;2022-12-01T07:41:49;10.50;9.50;6.00
76304;PMS7003;65111;50.536;19.204;2022-12-01T07:44:15;12.00;10.00;6.50
76304;PMS7003;65111;50.536;19.204;2022-12-01T07:46:42;9.00;7.00;6.00
76304;PMS7003;65111;50.536;19.204;2022-12-01T07:49:08;15.00;9.75;7.50
76304;PMS7003;65111;50.536;19.204;2022-12-01T07:51:36;14.75;9.00;6.00
76304;PMS7003;65111;50.536;19.204;2022-12-01T07:54:03;7.00;7.00;5.00
76304;PMS7003;65111;50.536;19.204;2022-12-01T07:56:32;13.25;10.00;6.50
76304;PMS7003;65111;50.536;19.204;2022-12-01T07:58:59;10.00;9.00;6.25
76304;PMS7003;65111;50.536;19.204;2022-12-01T08:01:25;9.00;6.75;3.50
76304;PMS7003;65111;50.536;19.204;2022-12-01T08:03:52;7.50;7.00;4.00
76304;PMS7003;65111;50.536;19.204;2022-12-01T08:06:20;6.00;6.00;4.00
76304;PMS7003;65111;50.536;19.204;2022-12-01T08:08:48;3.75;3.75;3.00
76304;PMS7003;65111;50.536;19.204;2022-12-01T08:11:16;12.25;9.25;5.50
76304;PMS7003;65111;50.536;19.204;2022-12-01T08:13:45;8.00;5.75;3.50
76304;PMS7003;65111;50.536;19.204;2022-12-01T08:16:13;7.50;7.00;6.00
76304;PMS7003;65111;50.536;19.204;2022-12-01T08:18:41;6.00;3.00;3.00
76304;PMS7003;65111;50.536;19.204;2022-12-01T08:21:10;1.00;0.50;0.00
76304;PMS7003;65111;50.536;19.204;2022-12-01T08:23:38;6.25;3.75;3.00
76304;PMS7003;65111;50.536;19.204;2022-12-01T08:26:05;6.50;4.50;4.00
76304;PMS7003;65111;50.536;19.204;2022-12-01T08:28:34;4.50;4.00;3.00
76304;PMS7003;65111;50.536;19.204;2022-12-01T08:31:08;2.75;2.75;1.00
76304;PMS7003;65111;50.536;19.204;2022-12-01T08:33:54;6.50;6.50;5.00
76304;PMS7003;65111;50.536;19.204;2022-12-01T08:36:20;6.75;5.00;3.00
76304;PMS7003;65111;50.536;19.204;2022-12-01T08:38:49;3.00;3.00;3.00
76304;PMS7003;65111;50.536;19.204;2022-12-01T08:41:17;3.50;3.50;2.00
76304;PMS7003;65111;50.536;19.204;2022-12-01T08:43:44;5.00;2.00;1.00
76304;PMS7003;65111;50.536;19.204;2022-12-01T08:46:11;3.25;3.25;3.25
76304;PMS7003;65111;50.536;19.204;2022-12-01T08:48:39;4.00;4.00;3.00
76304;PMS7003;65111;50.536;19.204;2022-12-01T08:51:07;6.00;6.00;3.00
76304;PMS7003;65111;50.536;19.204;2022-12-01T08:53:36;5.00;5.00;3.00
76304;PMS7003;65111;50.536;19.204;2022-12-01T08:56:09;2.50;2.50;1.00
76304;PMS7003;65111;50.536;19.204;2022-12-01T08:58:40;7.00;5.50;3.50
76304;PMS7003;65111;50.536;19.204;2022-12-01T09:01:08;9.50;5.00;3.00
76304;PMS7003;65111;50.536;19.204;2022-12-01T09:03:36;7.00;4.00;2.50
76304;PMS7003;65111;50.536;19.204;2022-12-01T09:06:10;3.00;3.00;3.00
76304;PMS7003;65111;50.536;19.204;2022-12-01T09:08:37;6.00;6.00;3.75
76304;PMS7003;65111;50.536;19.204;2022-12-01T09:11:05;4.50;3.25;2.50
76304;PMS7003;65111;50.536;19.204;2022-12-01T09:13:33;5.50;4.00;3.00
76304;PMS7003;65111;50.536;19.204;2022-12-01T09:16:03;6.75;5.50;3.75
76304;PMS7003;65111;50.536;19.204;2022-12-01T09:18:31;6.75;5.50;3.75
76304;PMS7003;65111;50.536;19.204;2022-12-01T09:20:58;5.75;3.75;2.50
76304;PMS7003;65111;50.536;19.204;2022-12-01T09:23:25;3.75;3.75;3.00
76304;PMS7003;65111;50.536;19.204;2022-12-01T09:25:51;9.00;9.00;6.00
76304;PMS7003;65111;50.536;19.204;2022-12-01T09:28:18;4.00;4.00;3.00
76304;PMS7003;65111;50.536;19.204;2022-12-01T09:30:48;3.25;3.25;1.00
76304;PMS7003;65111;50.536;19.204;2022-12-01T09:33:33;7.00;6.25;4.00
76304;PMS7003;65111;50.536;19.204;2022-12-01T09:36:00;10.00;6.50;4.00
76304;PMS7003;65111;50.536;19.204;2022-12-01T09:38:27;7.75;7.00;4.50
76304;PMS7003;65111;50.536;19.204;2022-12-01T09:40:54;8.50;8.00;5.00
76304;PMS7003;65111;50.536;19.204;2022-12-01T09:43:23;8.75;6.00;4.00
76304;PMS7003;65111;50.536;19.204;2022-12-01T09:46:04;4.00;4.00;3.25
76304;PMS7003;65111;50.536;19.204;2022-12-01T09:48:30;7.00;6.50;3.75
76304;PMS7003;65111;50.536;19.204;2022-12-01T09:50:57;6.00;6.00;4.50
76304;PMS7003;65111;50.536;19.204;2022-12-01T09:53:24;7.25;6.75;4.00
76304;PMS7003;65111;50.536;19.204;2022-12-01T09:55:53;4.00;3.00;1.00
76304;PMS7003;65111;50.536;19.204;2022-12-01T09:58:22;9.00;5.50;3.75
76304;PMS7003;65111;50.536;19.204;2022-12-01T10:00:50;7.00;6.00;5.00
76304;PMS7003;65111;50.536;19.204;2022-12-01T10:06:10;6.00;6.00;4.00
76304;PMS7003;65111;50.536;19.204;2022-12-01T10:08:42;5.50;4.00;3.25
76304;PMS7003;65111;50.536;19.204;2022-12-01T10:11:34;6.00;6.00;3.50
76304;PMS7003;65111;50.536;19.204;2022-12-01T10:13:57;5.00;5.00;3.00
76304;PMS7003;65111;50.536;19.204;2022-12-01T10:16:26;8.00;6.00;4.00
76304;PMS7003;65111;50.536;19.204;2022-12-01T10:18:59;12.75;9.00;5.00
76304;PMS7003;65111;50.536;19.204;2022-12-01T10:21:46;6.00;6.00;4.00
76304;PMS7003;65111;50.536;19.204;2022-12-01T10:32:18;7.00;4.00;4.00
76304;PMS7003;65111;50.536;19.204;2022-12-01T10:34:47;3.00;3.00;1.00
76304;PMS7003;65111;50.536;19.204;2022-12-01T10:37:23;3.00;2.00;1.00
76304;PMS7003;65111;50.536;19.204;2022-12-01T10:39:47;7.50;3.00;2.00
76304;PMS7003;65111;50.536;19.204;2022-12-01T10:42:26;5.00;3.75;3.25
76304;PMS7003;65111;50.536;19.204;2022-12-01T10:44:55;6.25;3.00;2.00
76304;PMS7003;65111;50.536;19.204;2022-12-01T10:47:24;6.00;3.75;3.25
76304;PMS7003;65111;50.536;19.204;2022-12-01T10:49:52;5.00;5.00;3.00
76304;PMS7003;65111;50.536;19.204;2022-12-01T10:57:55;12.00;9.00;4.00
76304;PMS7003;65111;50.536;19.204;2022-12-01T11:00:25;4.00;4.00;1.00
76304;PMS7003;65111;50.536;19.204;2022-12-01T11:02:53;6.75;6.50;5.50
76304;PMS7003;65111;50.536;19.204;2022-12-01T11:05:28;7.00;7.00;4.00
76304;PMS7003;65111;50.536;19.204;2022-12-01T11:07:57;7.00;7.00;6.00
76304;PMS7003;65111;50.536;19.204;2022-12-01T11:10:30;9.25;6.75;3.75
76304;PMS7003;65111;50.536;19.204;2022-12-01T11:13:05;8.50;6.00;4.00
76304;PMS7003;65111;50.536;19.204;2022-12-01T11:15:39;9.00;7.00;5.00
76304;PMS7003;65111;50.536;19.204;2022-12-01T11:18:19;4.00;4.00;3.50
76304;PMS7003;65111;50.536;19.204;2022-12-01T11:20:47;8.50;3.50;3.00
76304;PMS7003;65111;50.536;19.204;2022-12-01T11:26:19;6.50;5.50;3.25
76304;PMS7003;65111;50.536;19.204;2022-12-01T11:31:50;8.50;8.50;4.50
76304;PMS7003;65111;50.536;19.204;2022-12-01T11:34:24;13.00;8.00;6.00
76304;PMS7003;65111;50.536;19.204;2022-12-01T11:37:03;9.25;5.50;3.00
76304;PMS7003;65111;50.536;19.204;2022-12-01T11:39:31;6.75;6.00;5.50
76304;PMS7003;65111;50.536;19.204;2022-12-01T11:42:01;7.00;5.00;4.25
76304;PMS7003;65111;50.536;19.204;2022-12-01T11:44:30;6.50;6.00;5.00
76304;PMS7003;65111;50.536;19.204;2022-12-01T11:49:58;9.00;6.00;4.00
76304;PMS7003;65111;50.536;19.204;2022-12-01T11:52:33;6.50;6.50;4.00
76304;PMS7003;65111;50.536;19.204;2022-12-01T11:55:18;7.50;7.00;4.00
76304;PMS7003;65111;50.536;19.204;2022-12-01T11:57:35;7.00;7.00;5.50
76304;PMS7003;65111;50.536;19.204;2022-12-01T12:00:16;7.50;5.00;4.00
76304;PMS7003;65111;50.536;19.204;2022-12-01T12:13:58;10.50;9.25;6.25
76304;PMS7003;65111;50.536;19.204;2022-12-01T12:16:27;13.00;11.50;9.00
76304;PMS7003;65111;50.536;19.204;2022-12-01T12:24:27;13.25;11.75;7.75
76304;PMS7003;65111;50.536;19.204;2022-12-01T12:37:52;9.50;7.50;5.00
76304;PMS7003;65111;50.536;19.204;2022-12-01T12:46:12;12.00;11.75;7.50
76304;PMS7003;65111;50.536;19.204;2022-12-01T12:48:57;21.50;19.00;12.25
76304;PMS7003;65111;50.536;19.204;2022-12-01T12:51:42;15.50;13.50;9.25
76304;PMS7003;65111;50.536;19.204;2022-12-01T12:54:17;13.00;11.50;7.50
76304;PMS7003;65111;50.536;19.204;2022-12-01T12:57:04;10.00;10.00;7.50
76304;PMS7003;65111;50.536;19.204;2022-12-01T12:59:30;12.75;12.00;7.00
76304;PMS7003;65111;50.536;19.204;2022-12-01T13:07:45;9.00;9.00;6.75
76304;PMS7003;65111;50.536;19.204;2022-12-01T13:12:43;8.00;8.00;6.00
76304;PMS7003;65111;50.536;19.204;2022-12-01T13:15:17;14.00;11.50;7.00
76304;PMS7003;65111;50.536;19.204;2022-12-01T13:18:03;9.00;7.00;6.00
76304;PMS7003;65111;50.536;19.204;2022-12-01T13:20:36;8.00;6.00;4.00
76304;PMS7003;65111;50.536;19.204;2022-12-01T13:23:03;5.00;5.00;5.00
76304;PMS7003;65111;50.536;19.204;2022-12-01T13:25:35;6.25;6.00;3.25
76304;PMS7003;65111;50.536;19.204;2022-12-01T13:28:03;4.50;4.50;3.50
76304;PMS7003;65111;50.536;19.204;2022-12-01T13:30:33;2.00;2.00;1.00
76304;PMS7003;65111;50.536;19.204;2022-12-01T13:33:03;4.75;4.75;3.75
76304;PMS7003;65111;50.536;19.204;2022-12-01T13:35:31;3.75;3.75;3.25
76304;PMS7003;65111;50.536;19.204;2022-12-01T13:40:47;7.00;3.00;1.00
76304;PMS7003;65111;50.536;19.204;2022-12-01T13:43:16;4.50;4.50;4.00
76304;PMS7003;65111;50.536;19.204;2022-12-01T13:45:46;6.00;6.00;4.50
76304;PMS7003;65111;50.536;19.204;2022-12-01T13:51:04;38.75;30.50;21.75
76304;PMS7003;65111;50.536;19.204;2022-12-01T13:53:31;15.75;12.50;7.50
76304;PMS7003;65111;50.536;19.204;2022-12-01T13:58:48;9.75;8.00;5.50
76304;PMS7003;65111;50.536;19.204;2022-12-01T14:03:55;12.75;7.50;4.00
76304;PMS7003;65111;50.536;19.204;2022-12-01T14:09:18;10.00;7.50;6.00
76304;PMS7003;65111;50.536;19.204;2022-12-01T14:11:59;6.75;3.25;1.00
76304;PMS7003;65111;50.536;19.204;2022-12-01T14:14:32;6.75;6.00;5.00
76304;PMS7003;65111;50.536;19.204;2022-12-01T14:17:03;8.00;7.00;4.00
76304;PMS7003;65111;50.536;19.204;2022-12-01T14:19:36;9.50;9.50;5.50
76304;PMS7003;65111;50.536;19.204;2022-12-01T14:22:04;9.50;9.50;6.50
76304;PMS7003;65111;50.536;19.204;2022-12-01T14:27:05;6.00;6.00;4.00
76304;PMS7003;65111;50.536;19.204;2022-12-01T14:29:36;10.50;6.50;5.50
76304;PMS7003;65111;50.536;19.204;2022-12-01T14:32:17;9.25;7.00;6.00
76304;PMS7003;65111;50.536;19.204;2022-12-01T14:34:38;9.25;9.00;6.25
76304;PMS7003;65111;50.536;19.204;2022-12-01T14:37:10;5.50;4.00;3.00
76304;PMS7003;65111;50.536;19.204;2022-12-01T14:39:46;7.50;6.50;3.50
76304;PMS7003;65111;50.536;19.204;2022-12-01T14:45:19;9.75;7.50;6.25
76304;PMS7003;65111;50.536;19.204;2022-12-01T14:48:06;10.00;10.00;6.67
76304;PMS7003;65111;50.536;19.204;2022-12-01T14:50:42;8.50;8.50;4.50
76304;PMS7003;65111;50.536;19.204;2022-12-01T14:53:29;11.50;11.50;7.00
76304;PMS7003;65111;50.536;19.204;2022-12-01T14:56:03;12.00;7.00;3.75
76304;PMS7003;65111;50.536;19.204;2022-12-01T14:58:53;12.50;9.75;6.00
76304;PMS7003;65111;50.536;19.204;2022-12-01T15:01:28;10.00;9.25;5.00
76304;PMS7003;65111;50.536;19.204;2022-12-01T15:03:57;8.00;6.25;4.00
76304;PMS7003;65111;50.536;19.204;2022-12-01T15:06:26;9.25;9.25;4.50
76304;PMS7003;65111;50.536;19.204;2022-12-01T15:09:05;11.00;7.50;6.00
76304;PMS7003;65111;50.536;19.204;2022-12-01T15:11:34;14.75;10.00;7.00
76304;PMS7003;65111;50.536;19.204;2022-12-01T15:14:19;9.00;8.00;6.00
76304;PMS7003;65111;50.536;19.204;2022-12-01T15:16:50;6.25;6.25;3.75
76304;PMS7003;65111;50.536;19.204;2022-12-01T15:21:56;10.50;10.50;6.00
76304;PMS7003;65111;50.536;19.204;2022-12-01T15:24:24;11.75;8.50;6.00
76304;PMS7003;65111;50.536;19.204;2022-12-01T15:26:56;9.00;8.50;5.50
76304;PMS7003;65111;50.536;19.204;2022-12-01T15:29:24;14.50;11.75;8.00
76304;PMS7003;65111;50.536;19.204;2022-12-01T15:32:00;9.00;7.00;3.50
76304;PMS7003;65111;50.536;19.204;2022-12-01T15:34:32;7.00;7.00;4.00
76304;PMS7003;65111;50.536;19.204;2022-12-01T15:37:02;17.50;13.00;9.75
76304;PMS7003;65111;50.536;19.204;2022-12-01T15:39:52;12.00;12.00;7.00
76304;PMS7003;65111;50.536;19.204;2022-12-01T15:42:03;13.50;12.75;9.50
76304;PMS7003;65111;50.536;19.204;2022-12-01T15:47:28;7.00;7.00;4.50
76304;PMS7003;65111;50.536;19.204;2022-12-01T15:49:47;10.50;10.50;7.00
76304;PMS7003;65111;50.536;19.204;2022-12-01T15:52:14;12.50;6.00;3.25
76304;PMS7003;65111;50.536;19.204;2022-12-01T15:54:45;13.00;13.00;7.00
76304;PMS7003;65111;50.536;19.204;2022-12-01T15:57:14;14.00;13.50;9.00
76304;PMS7003;65111;50.536;19.204;2022-12-01T15:59:43;14.00;11.50;6.75
76304;PMS7003;65111;50.536;19.204;2022-12-01T16:05:05;12.25;7.00;3.50
76304;PMS7003;65111;50.536;19.204;2022-12-01T16:07:39;14.50;13.50;7.00
76304;PMS7003;65111;50.536;19.204;2022-12-01T16:10:22;9.25;8.50;6.25
76304;PMS7003;65111;50.536;19.204;2022-12-01T16:12:39;10.25;9.75;7.00
76304;PMS7003;65111;50.536;19.204;2022-12-01T16:17:46;8.50;8.50;6.00
76304;PMS7003;65111;50.536;19.204;2022-12-01T16:22:52;9.50;9.00;7.00
76304;PMS7003;65111;50.536;19.204;2022-12-01T16:25:45;8.50;6.75;5.00
76304;PMS7003;65111;50.536;19.204;2022-12-01T16:27:59;12.25;12.00;7.50
76304;PMS7003;65111;50.536;19.204;2022-12-01T16:30:27;18.50;16.00;9.75
76304;PMS7003;65111;50.536;19.204;2022-12-01T16:33:00;11.25;11.25;8.00